PST,Max TemperatureF,Mean TemperatureF,Min TemperatureF,Max Dew PointF,MeanDew PointF,Min DewpointF,Max Humidity, Mean Humidity, Min Humidity, Max Sea Level PressureIn, Mean Sea Level PressureIn, Min Sea Level PressureIn, Max VisibilityMiles, Mean VisibilityMiles, Min VisibilityMiles, Max Wind SpeedMPH, Mean Wind SpeedMPH, Max Gust SpeedMPH,PrecipitationIn, CloudCover, Events, WindDirDegrees
2013-1-1,54,44,34,23,17,13,59,34,20,30.32,30.25,30.20,10,10,10,22,10,30,0.00,0,,355
2013-1-2,57,48,39,19,16,13,41,27,18,30.22,30.14,30.07,10,10,10,25,15,32,0.00,0,,12
2013-1-3,59,52,44,15,11,6,30,21,13,30.24,30.19,30.10,10,10,10,26,19,33,0.00,0,,4
2013-1-4,57,47,37,17,13,9,42,28,14,30.34,30.27,30.22,10,10,10,10,6,,0.00,0,,319
2013-1-5,57,44,32,20,16,15,52,35,19,30.38,30.29,30.19,10,10,10,8,3,,0.00,0,,308
2013-1-6,55,46,37,25,20,18,51,38,24,30.17,30.04,29.94,10,10,10,8,2,,0.00,0,,290
2013-1-7,64,50,37,28,19,12,57,32,14,30.02,29.96,29.93,10,10,10,24,9,31,0.00,0,,323
2013-1-8,70,59,48,28,23,12,37,26,20,30.11,30.04,29.97,10,10,10,26,10,31,0.00,0,,341
2013-1-9,68,60,51,31,29,28,44,34,22,30.18,30.05,29.87,10,10,10,13,8,,0.00,0,,326
2013-1-10,63,54,46,34,24,9,48,32,15,29.90,29.78,29.71,10,10,10,24,7,30,0.00,2,,278
2013-1-11,54,46,37,17,12,5,40,27,14,30.10,30.01,29.93,10,10,10,16,6,22,0.00,0,,287
2013-1-12,50,42,34,15,9,5,43,27,16,30.16,30.10,30.02,10,10,10,13,5,,0.00,1,,348
2013-1-13,48,39,30,11,7,0,37,28,18,30.21,30.15,30.09,10,10,10,17,6,,0.00,0,,349
2013-1-14,44,36,28,5,1,-3,33,23,14,30.43,30.33,30.22,10,10,10,28,14,33,0.00,0,,6
2013-1-15,50,41,32,17,9,3,34,25,19,30.55,30.46,30.40,10,10,10,31,13,38,0.00,0,,2
2013-1-16,61,51,41,21,19,16,41,29,21,30.45,30.34,30.25,10,10,10,29,14,36,0.00,0,,5
2013-1-17,66,57,48,18,16,14,28,21,14,30.32,30.24,30.18,10,10,10,22,13,30,0.00,0,,3
2013-1-18,66,56,46,19,18,16,33,23,15,30.27,30.20,30.14,10,10,10,20,10,25,0.00,0,,348
2013-1-19,68,58,46,18,17,14,29,22,14,30.29,30.20,30.14,10,10,10,20,10,,0.00,0,,339
2013-1-20,70,58,46,17,14,11,29,20,11,30.21,30.13,30.06,10,10,10,16,9,,0.00,0,,334
2013-1-21,71,62,52,12,9,7,19,14,9,30.17,30.10,30.06,10,10,10,23,12,32,0.00,0,,355
2013-1-22,73,60,46,16,14,10,23,17,10,30.19,30.12,30.06,10,10,10,12,8,,0.00,0,,338
2013-1-23,68,58,48,22,19,17,29,22,16,30.18,30.10,30.05,10,10,10,9,4,,0.00,0,,315
2013-1-24,66,60,55,49,36,21,69,42,21,30.19,30.13,30.06,10,10,10,8,4,,0.00,5,,356
2013-1-25,71,63,55,55,46,42,90,58,38,30.18,30.07,29.94,10,10,9,10,5,,0.12,5,Rain,349
2013-1-26,62,58,55,57,55,54,100,89,80,29.97,29.88,29.82,10,9,4,7,3,,0.34,8,Rain,43
2013-1-27,69,61,53,56,50,37,94,70,36,29.92,29.85,29.77,10,10,10,17,5,28,0.00,5,,217
2013-1-28,57,52,46,33,26,21,52,38,27,30.05,29.96,29.85,10,10,10,16,8,,0.00,3,,313
2013-1-29,59,48,37,37,30,25,71,52,29,30.23,30.10,30.04,10,10,10,7,3,,0.00,0,,156
2013-1-30,64,52,39,40,34,28,79,54,26,30.35,30.27,30.21,10,10,10,9,4,,0.00,0,,232
2013-1-31,71,56,42,38,35,31,79,51,23,30.25,30.19,30.09,10,10,10,14,4,,0.00,0,,303